sensor_id;sensor_type;location;lat;lon;timestamp;P1;durP1;ratioP1;P2;durP2;ratioP2
30408;SDS011;17207;52.960;5.916;2023-03-01T00:01:13;3.95;;;2.42;;
30408;SDS011;17207;52.960;5.916;2023-03-01T00:03:39;3.08;;;2.42;;
30408;SDS011;17207;52.960;5.916;2023-03-01T00:06:06;3.95;;;2.90;;
30408;SDS011;17207;52.960;5.916;2023-03-01T00:08:32;3.35;;;2.65;;
30408;SDS011;17207;52.960;5.916;2023-03-01T00:13:27;3.05;;;2.60;;
30408;SDS011;17207;52.960;5.916;2023-03-01T00:15:53;3.97;;;2.33;;
30408;SDS011;17207;52.960;5.916;2023-03-01T00:18:19;5.03;;;2.65;;
30408;SDS011;17207;52.960;5.916;2023-03-01T00:20:51;6.07;;;3.15;;
30408;SDS011;17207;52.960;5.916;2023-03-01T00:23:17;4.07;;;2.60;;
30408;SDS011;17207;52.960;5.916;2023-03-01T00:25:43;4.78;;;2.53;;
30408;SDS011;17207;52.960;5.916;2023-03-01T00:28:10;4.03;;;2.50;;
30408;SDS011;17207;52.960;5.916;2023-03-01T00:30:36;3.72;;;2.53;;
30408;SDS011;17207;52.960;5.916;2023-03-01T00:33:02;4.68;;;2.50;;
30408;SDS011;17207;52.960;5.916;2023-03-01T00:35:28;3.38;;;2.58;;
30408;SDS011;17207;52.960;5.916;2023-03-01T00:37:54;3.80;;;2.13;;
30408;SDS011;17207;52.960;5.916;2023-03-01T00:40:26;3.75;;;2.40;;
30408;SDS011;17207;52.960;5.916;2023-03-01T00:42:52;2.17;;;1.98;;
30408;SDS011;17207;52.960;5.916;2023-03-01T00:45:18;5.35;;;2.60;;
30408;SDS011;17207;52.960;5.916;2023-03-01T00:47:44;4.13;;;2.13;;
30408;SDS011;17207;52.960;5.916;2023-03-01T00:50:10;3.25;;;2.35;;
30408;SDS011;17207;52.960;5.916;2023-03-01T00:52:36;2.15;;;1.77;;
30408;SDS011;17207;52.960;5.916;2023-03-01T00:55:03;4.68;;;2.40;;
30408;SDS011;17207;52.960;5.916;2023-03-01T00:57:29;3.20;;;2.50;;
30408;SDS011;17207;52.960;5.916;2023-03-01T00:59:55;6.13;;;2.38;;
30408;SDS011;17207;52.960;5.916;2023-03-01T01:02:22;2.55;;;1.98;;
30408;SDS011;17207;52.960;5.916;2023-03-01T01:04:48;5.90;;;2.35;;
30408;SDS011;17207;52.960;5.916;2023-03-01T01:07:14;2.80;;;2.25;;
30408;SDS011;17207;52.960;5.916;2023-03-01T01:09:40;3.13;;;2.28;;
30408;SDS011;17207;52.960;5.916;2023-03-01T01:12:06;2.08;;;1.77;;
30408;SDS011;17207;52.960;5.916;2023-03-01T01:14:32;3.42;;;2.10;;
30408;SDS011;17207;52.960;5.916;2023-03-01T01:16:58;2.50;;;2.00;;
30408;SDS011;17207;52.960;5.916;2023-03-01T01:19:25;3.17;;;2.40;;
30408;SDS011;17207;52.960;5.916;2023-03-01T01:21:51;4.53;;;2.20;;
30408;SDS011;17207;52.960;5.916;2023-03-01T01:24:17;2.78;;;1.95;;
30408;SDS011;17207;52.960;5.916;2023-03-01T01:26:43;3.40;;;2.13;;
30408;SDS011;17207;52.960;5.916;2023-03-01T01:29:10;2.25;;;1.90;;
30408;SDS011;17207;52.960;5.916;2023-03-01T01:31:36;3.45;;;2.30;;
30408;SDS011;17207;52.960;5.916;2023-03-01T01:34:03;3.30;;;1.90;;
30408;SDS011;17207;52.960;5.916;2023-03-01T01:36:30;4.80;;;2.03;;
30408;SDS011;17207;52.960;5.916;2023-03-01T01:38:56;3.65;;;2.50;;
30408;SDS011;17207;52.960;5.916;2023-03-01T01:41:22;2.40;;;2.03;;
30408;SDS011;17207;52.960;5.916;2023-03-01T01:44:08;2.85;;;1.98;;
30408;SDS011;17207;52.960;5.916;2023-03-01T01:46:42;4.97;;;2.25;;
30408;SDS011;17207;52.960;5.916;2023-03-01T01:49:14;2.70;;;1.83;;
30408;SDS011;17207;52.960;5.916;2023-03-01T01:51:43;6.13;;;2.25;;
30408;SDS011;17207;52.960;5.916;2023-03-01T01:54:15;2.75;;;2.13;;
30408;SDS011;17207;52.960;5.916;2023-03-01T01:56:42;3.38;;;2.35;;
30408;SDS011;17207;52.960;5.916;2023-03-01T01:59:09;3.72;;;2.17;;
30408;SDS011;17207;52.960;5.916;2023-03-01T02:01:36;3.72;;;2.22;;
30408;SDS011;17207;52.960;5.916;2023-03-01T02:04:03;3.35;;;2.22;;
30408;SDS011;17207;52.960;5.916;2023-03-01T02:06:32;4.57;;;2.45;;
30408;SDS011;17207;52.960;5.916;2023-03-01T02:09:04;2.35;;;1.63;;
30408;SDS011;17207;52.960;5.916;2023-03-01T02:11:32;2.80;;;2.05;;
30408;SDS011;17207;52.960;5.916;2023-03-01T02:13:58;3.65;;;2.17;;
30408;SDS011;17207;52.960;5.916;2023-03-01T02:16:24;3.63;;;2.00;;
30408;SDS011;17207;52.960;5.916;2023-03-01T02:18:51;4.13;;;2.20;;
30408;SDS011;17207;52.960;5.916;2023-03-01T02:24:10;2.47;;;1.80;;
30408;SDS011;17207;52.960;5.916;2023-03-01T02:26:40;3.92;;;2.10;;
30408;SDS011;17207;52.960;5.916;2023-03-01T02:29:08;2.47;;;1.95;;
30408;SDS011;17207;52.960;5.916;2023-03-01T02:31:34;2.95;;;2.10;;
30408;SDS011;17207;52.960;5.916;2023-03-01T02:34:11;3.70;;;1.77;;
30408;SDS011;17207;52.960;5.916;2023-03-01T02:36:39;4.13;;;2.35;;
30408;SDS011;17207;52.960;5.916;2023-03-01T02:39:07;1.70;;;1.60;;
30408;SDS011;17207;52.960;5.916;2023-03-01T02:41:39;2.95;;;2.05;;
30408;SDS011;17207;52.960;5.916;2023-03-01T02:44:06;2.90;;;2.08;;
30408;SDS011;17207;52.960;5.916;2023-03-01T02:46:33;3.05;;;1.90;;
30408;SDS011;17207;52.960;5.916;2023-03-01T02:48:59;2.17;;;1.88;;
30408;SDS011;17207;52.960;5.916;2023-03-01T02:53:55;2.42;;;1.52;;
30408;SDS011;17207;52.960;5.916;2023-03-01T02:56:25;2.35;;;1.80;;
30408;SDS011;17207;52.960;5.916;2023-03-01T02:58:51;2.33;;;1.55;;
30408;SDS011;17207;52.960;5.916;2023-03-01T03:01:18;2.60;;;1.70;;
30408;SDS011;17207;52.960;5.916;2023-03-01T03:03:45;3.60;;;2.42;;
30408;SDS011;17207;52.960;5.916;2023-03-01T03:06:11;5.57;;;2.00;;
30408;SDS011;17207;52.960;5.916;2023-03-01T03:08:37;2.75;;;1.80;;
30408;SDS011;17207;52.960;5.916;2023-03-01T03:11:04;2.35;;;1.73;;
30408;SDS011;17207;52.960;5.916;2023-03-01T03:13:30;1.88;;;1.45;;
30408;SDS011;17207;52.960;5.916;2023-03-01T03:15:57;4.03;;;2.13;;
30408;SDS011;17207;52.960;5.916;2023-03-01T03:18:23;2.80;;;1.85;;
30408;SDS011;17207;52.960;5.916;2023-03-01T03:20:53;3.08;;;1.90;;
30408;SDS011;17207;52.960;5.916;2023-03-01T03:23:20;1.83;;;1.65;;
30408;SDS011;17207;52.960;5.916;2023-03-01T03:25:49;2.08;;;1.80;;
30408;SDS011;17207;52.960;5.916;2023-03-01T03:28:16;2.85;;;1.88;;
30408;SDS011;17207;52.960;5.916;2023-03-01T03:30:42;2.25;;;2.03;;
30408;SDS011;17207;52.960;5.916;2023-03-01T03:33:12;2.97;;;2.00;;
30408;SDS011;17207;52.960;5.916;2023-03-01T03:35:42;3.85;;;1.75;;
30408;SDS011;17207;52.960;5.916;2023-03-01T03:38:09;2.38;;;1.73;;
30408;SDS011;17207;52.960;5.916;2023-03-01T03:40:44;2.08;;;1.73;;
30408;SDS011;17207;52.960;5.916;2023-03-01T03:43:12;2.80;;;1.75;;
30408;SDS011;17207;52.960;5.916;2023-03-01T03:45:38;2.60;;;1.88;;
30408;SDS011;17207;52.960;5.916;2023-03-01T03:48:05;3.58;;;2.15;;
30408;SDS011;17207;52.960;5.916;2023-03-01T03:50:32;2.50;;;1.90;;
30408;SDS011;17207;52.960;5.916;2023-03-01T03:53:00;3.53;;;1.92;;
30408;SDS011;17207;52.960;5.916;2023-03-01T03:55:26;3.80;;;1.88;;
30408;SDS011;17207;52.960;5.916;2023-03-01T03:57:56;2.40;;;1.73;;
30408;SDS011;17207;52.960;5.916;2023-03-01T04:00:23;2.17;;;1.50;;
30408;SDS011;17207;52.960;5.916;2023-03-01T04:02:50;2.50;;;1.60;;
30408;SDS011;17207;52.960;5.916;2023-03-01T04:05:17;1.50;;;1.40;;
30408;SDS011;17207;52.960;5.916;2023-03-01T04:07:44;2.10;;;1.45;;
30408;SDS011;17207;52.960;5.916;2023-03-01T04:10:12;1.85;;;1.45;;
30408;SDS011;17207;52.960;5.916;2023-03-01T04:12:38;1.63;;;1.30;;
30408;SDS011;17207;52.960;5.916;2023-03-01T04:15:05;1.55;;;1.33;;
30408;SDS011;17207;52.960;5.916;2023-03-01T04:17:41;2.42;;;1.70;;
30408;SDS011;17207;52.960;5.916;2023-03-01T04:20:11;1.23;;;1.13;;
30408;SDS011;17207;52.960;5.916;2023-03-01T04:22:38;1.83;;;1.58;;
30408;SDS011;17207;52.960;5.916;2023-03-01T04:25:05;3.13;;;1.90;;
30408;SDS011;17207;52.960;5.916;2023-03-01T04:27:35;2.42;;;1.30;;
30408;SDS011;17207;52.960;5.916;2023-03-01T04:30:02;1.55;;;1.45;;
30408;SDS011;17207;52.960;5.916;2023-03-01T04:32:28;1.47;;;1.30;;
30408;SDS011;17207;52.960;5.916;2023-03-01T04:34:54;2.08;;;1.60;;
30408;SDS011;17207;52.960;5.916;2023-03-01T04:37:20;2.17;;;1.55;;
30408;SDS011;17207;52.960;5.916;2023-03-01T04:39:46;1.45;;;1.23;;
30408;SDS011;17207;52.960;5.916;2023-03-01T04:42:12;1.98;;;1.40;;
30408;SDS011;17207;52.960;5.916;2023-03-01T04:44:39;2.13;;;1.38;;
30408;SDS011;17207;52.960;5.916;2023-03-01T04:47:05;1.50;;;1.40;;
30408;SDS011;17207;52.960;5.916;2023-03-01T04:49:31;3.08;;;1.65;;
30408;SDS011;17207;52.960;5.916;2023-03-01T04:51:57;1.55;;;1.23;;
30408;SDS011;17207;52.960;5.916;2023-03-01T04:54:27;2.08;;;1.48;;
30408;SDS011;17207;52.960;5.916;2023-03-01T04:56:53;1.75;;;1.50;;
30408;SDS011;17207;52.960;5.916;2023-03-01T04:59:19;1.60;;;1.48;;
30408;SDS011;17207;52.960;5.916;2023-03-01T05:01:49;1.73;;;1.30;;
30408;SDS011;17207;52.960;5.916;2023-03-01T05:04:15;2.13;;;1.38;;
30408;SDS011;17207;52.960;5.916;2023-03-01T05:06:41;3.22;;;1.63;;
30408;SDS011;17207;52.960;5.916;2023-03-01T05:09:07;2.05;;;1.60;;
30408;SDS011;17207;52.960;5.916;2023-03-01T05:11:33;1.40;;;1.23;;
30408;SDS011;17207;52.960;5.916;2023-03-01T05:14:04;1.75;;;1.35;;
30408;SDS011;17207;52.960;5.916;2023-03-01T05:16:30;1.77;;;1.20;;
30408;SDS011;17207;52.960;5.916;2023-03-01T05:18:57;2.20;;;1.58;;
30408;SDS011;17207;52.960;5.916;2023-03-01T05:21:23;1.58;;;1.27;;
30408;SDS011;17207;52.960;5.916;2023-03-01T05:23:50;2.47;;;1.55;;
30408;SDS011;17207;52.960;5.916;2023-03-01T05:26:16;1.80;;;1.40;;
30408;SDS011;17207;52.960;5.916;2023-03-01T05:28:43;2.10;;;1.67;;
30408;SDS011;17207;52.960;5.916;2023-03-01T05:31:09;1.80;;;1.50;;
30408;SDS011;17207;52.960;5.916;2023-03-01T05:33:36;1.38;;;1.17;;
30408;SDS011;17207;52.960;5.916;2023-03-01T05:36:03;2.37;;;1.40;;
30408;SDS011;17207;52.960;5.916;2023-03-01T05:38:29;1.40;;;1.30;;
30408;SDS011;17207;52.960;5.916;2023-03-01T05:40:55;1.50;;;1.27;;
30408;SDS011;17207;52.960;5.916;2023-03-01T05:43:21;1.40;;;1.30;;
30408;SDS011;17207;52.960;5.916;2023-03-01T05:45:47;1.73;;;1.30;;
30408;SDS011;17207;52.960;5.916;2023-03-01T05:48:13;1.40;;;1.30;;
30408;SDS011;17207;52.960;5.916;2023-03-01T05:50:40;1.45;;;1.35;;
30408;SDS011;17207;52.960;5.916;2023-03-01T05:53:11;1.80;;;1.42;;
30408;SDS011;17207;52.960;5.916;2023-03-01T05:55:38;1.67;;;1.48;;
30408;SDS011;17207;52.960;5.916;2023-03-01T05:58:05;1.63;;;1.35;;
30408;SDS011;17207;52.960;5.916;2023-03-01T06:02:58;2.25;;;1.40;;
30408;SDS011;17207;52.960;5.916;2023-03-01T06:05:24;1.77;;;1.27;;
30408;SDS011;17207;52.960;5.916;2023-03-01T06:07:51;1.33;;;1.23;;
30408;SDS011;17207;52.960;5.916;2023-03-01T06:10:18;1.42;;;1.30;;
30408;SDS011;17207;52.960;5.916;2023-03-01T06:12:45;1.58;;;1.30;;
30408;SDS011;17207;52.960;5.916;2023-03-01T06:15:11;2.63;;;1.23;;
30408;SDS011;17207;52.960;5.916;2023-03-01T06:17:38;2.70;;;1.20;;
30408;SDS011;17207;52.960;5.916;2023-03-01T06:20:06;1.25;;;1.15;;
30408;SDS011;17207;52.960;5.916;2023-03-01T06:22:32;1.73;;;1.30;;
30408;SDS011;17207;52.960;5.916;2023-03-01T06:24:58;2.00;;;1.40;;
30408;SDS011;17207;52.960;5.916;2023-03-01T06:27:24;2.05;;;1.30;;
30408;SDS011;17207;52.960;5.916;2023-03-01T06:29:50;1.92;;;1.48;;
30408;SDS011;17207;52.960;5.916;2023-03-01T06:32:16;1.65;;;1.30;;
30408;SDS011;17207;52.960;5.916;2023-03-01T06:34:43;1.45;;;1.30;;
30408;SDS011;17207;52.960;5.916;2023-03-01T06:37:09;2.08;;;1.45;;
30408;SDS011;17207;52.960;5.916;2023-03-01T06:39:35;1.85;;;1.38;;
30408;SDS011;17207;52.960;5.916;2023-03-01T06:42:01;1.83;;;1.40;;
30408;SDS011;17207;52.960;5.916;2023-03-01T06:44:28;2.10;;;1.40;;
30408;SDS011;17207;52.960;5.916;2023-03-01T06:46:54;1.33;;;1.10;;
30408;SDS011;17207;52.960;5.916;2023-03-01T06:49:20;1.30;;;1.17;;
30408;SDS011;17207;52.960;5.916;2023-03-01T06:51:46;1.50;;;1.27;;
30408;SDS011;17207;52.960;5.916;2023-03-01T06:54:12;1.63;;;1.40;;
30408;SDS011;17207;52.960;5.916;2023-03-01T06:56:38;1.80;;;1.40;;
30408;SDS011;17207;52.960;5.916;2023-03-01T06:59:04;1.35;;;1.23;;
30408;SDS011;17207;52.960;5.916;2023-03-01T07:01:31;1.70;;;1.23;;
30408;SDS011;17207;52.960;5.916;2023-03-01T07:03:57;1.50;;;1.40;;
30408;SDS011;17207;52.960;5.916;2023-03-01T07:06:23;1.63;;;1.30;;
30408;SDS011;17207;52.960;5.916;2023-03-01T07:08:49;2.20;;;1.50;;
30408;SDS011;17207;52.960;5.916;2023-03-01T07:11:15;1.15;;;1.05;;
30408;SDS011;17207;52.960;5.916;2023-03-01T07:13:42;1.90;;;1.25;;
30408;SDS011;17207;52.960;5.916;2023-03-01T07:16:08;2.75;;;1.60;;
30408;SDS011;17207;52.960;5.916;2023-03-01T07:18:34;1.95;;;1.23;;
30408;SDS011;17207;52.960;5.916;2023-03-01T07:21:11;2.33;;;1.50;;
30408;SDS011;17207;52.960;5.916;2023-03-01T07:23:37;2.03;;;1.52;;
30408;SDS011;17207;52.960;5.916;2023-03-01T07:26:04;2.15;;;1.48;;
30408;SDS011;17207;52.960;5.916;2023-03-01T07:28:30;2.67;;;1.92;;
30408;SDS011;17207;52.960;5.916;2023-03-01T07:31:00;1.75;;;1.40;;
30408;SDS011;17207;52.960;5.916;2023-03-01T07:33:26;6.65;;;1.70;;
30408;SDS011;17207;52.960;5.916;2023-03-01T07:35:59;2.08;;;1.70;;
30408;SDS011;17207;52.960;5.916;2023-03-01T07:38:25;2.45;;;1.65;;
30408;SDS011;17207;52.960;5.916;2023-03-01T07:40:51;2.00;;;1.60;;
30408;SDS011;17207;52.960;5.916;2023-03-01T07:43:18;8.35;;;1.85;;
30408;SDS011;17207;52.960;5.916;2023-03-01T07:45:45;5.30;;;1.77;;
30408;SDS011;17207;52.960;5.916;2023-03-01T07:48:11;2.35;;;1.52;;
30408;SDS011;17207;52.960;5.916;2023-03-01T07:50:37;3.50;;;1.60;;
30408;SDS011;17207;52.960;5.916;2023-03-01T07:53:03;3.28;;;1.40;;
30408;SDS011;17207;52.960;5.916;2023-03-01T07:55:29;3.22;;;1.42;;
30408;SDS011;17207;52.960;5.916;2023-03-01T07:57:55;3.53;;;1.25;;
30408;SDS011;17207;52.960;5.916;2023-03-01T08:00:21;2.10;;;1.50;;
30408;SDS011;17207;52.960;5.916;2023-03-01T08:02:47;1.95;;;1.35;;
30408;SDS011;17207;52.960;5.916;2023-03-01T08:05:13;2.55;;;1.98;;
30408;SDS011;17207;52.960;5.916;2023-03-01T08:07:40;1.55;;;1.35;;
30408;SDS011;17207;52.960;5.916;2023-03-01T08:10:06;2.13;;;1.30;;
30408;SDS011;17207;52.960;5.916;2023-03-01T08:12:32;5.03;;;1.77;;
30408;SDS011;17207;52.960;5.916;2023-03-01T08:14:58;3.40;;;1.38;;
30408;SDS011;17207;52.960;5.916;2023-03-01T08:17:24;2.85;;;1.60;;
30408;SDS011;17207;52.960;5.916;2023-03-01T08:19:50;1.40;;;1.30;;
30408;SDS011;17207;52.960;5.916;2023-03-01T08:22:16;15.07;;;1.95;;
30408;SDS011;17207;52.960;5.916;2023-03-01T08:24:42;6.03;;;1.67;;
30408;SDS011;17207;52.960;5.916;2023-03-01T08:27:08;4.03;;;1.50;;
30408;SDS011;17207;52.960;5.916;2023-03-01T08:29:35;2.83;;;1.20;;
30408;SDS011;17207;52.960;5.916;2023-03-01T08:32:01;4.57;;;1.60;;
30408;SDS011;17207;52.960;5.916;2023-03-01T08:34:27;2.20;;;1.58;;
30408;SDS011;17207;52.960;5.916;2023-03-01T08:36:53;3.05;;;1.73;;
30408;SDS011;17207;52.960;5.916;2023-03-01T08:39:19;2.88;;;1.40;;
30408;SDS011;17207;52.960;5.916;2023-03-01T08:41:46;2.53;;;1.65;;
30408;SDS011;17207;52.960;5.916;2023-03-01T08:44:12;3.85;;;1.40;;
30408;SDS011;17207;52.960;5.916;2023-03-01T08:46:39;2.28;;;1.30;;
30408;SDS011;17207;52.960;5.916;2023-03-01T08:49:10;2.97;;;1.43;;
30408;SDS011;17207;52.960;5.916;2023-03-01T08:51:36;3.42;;;1.70;;
30408;SDS011;17207;52.960;5.916;2023-03-01T08:54:06;1.73;;;1.40;;
30408;SDS011;17207;52.960;5.916;2023-03-01T08:56:32;4.82;;;1.40;;
30408;SDS011;17207;52.960;5.916;2023-03-01T08:58:59;2.38;;;1.58;;
30408;SDS011;17207;52.960;5.916;2023-03-01T09:01:25;2.33;;;1.67;;
30408;SDS011;17207;52.960;5.916;2023-03-01T09:03:51;1.80;;;1.60;;
30408;SDS011;17207;52.960;5.916;2023-03-01T09:06:18;1.92;;;1.27;;
30408;SDS011;17207;52.960;5.916;2023-03-01T09:08:47;4.28;;;1.40;;
30408;SDS011;17207;52.960;5.916;2023-03-01T09:11:15;1.65;;;1.27;;
30408;SDS011;17207;52.960;5.916;2023-03-01T09:13:43;2.45;;;1.60;;
30408;SDS011;17207;52.960;5.916;2023-03-01T09:16:10;3.03;;;1.77;;
30408;SDS011;17207;52.960;5.916;2023-03-01T09:18:36;3.20;;;1.70;;
30408;SDS011;17207;52.960;5.916;2023-03-01T09:21:03;3.00;;;1.42;;
30408;SDS011;17207;52.960;5.916;2023-03-01T09:23:32;1.30;;;1.20;;
30408;SDS011;17207;52.960;5.916;2023-03-01T09:25:59;2.92;;;1.58;;
30408;SDS011;17207;52.960;5.916;2023-03-01T09:28:25;1.77;;;1.17;;
30408;SDS011;17207;52.960;5.916;2023-03-01T09:30:51;2.67;;;1.63;;
30408;SDS011;17207;52.960;5.916;2023-03-01T09:33:17;3.13;;;1.75;;
30408;SDS011;17207;52.960;5.916;2023-03-01T09:35:43;2.85;;;1.58;;
30408;SDS011;17207;52.960;5.916;2023-03-01T09:38:12;2.55;;;1.33;;
30408;SDS011;17207;52.960;5.916;2023-03-01T09:40:42;2.83;;;1.50;;
30408;SDS011;17207;52.960;5.916;2023-03-01T09:45:49;4.57;;;1.73;;
30408;SDS011;17207;52.960;5.916;2023-03-01T09:48:17;5.00;;;1.40;;
30408;SDS011;17207;52.960;5.916;2023-03-01T09:50:47;2.15;;;1.42;;
30408;SDS011;17207;52.960;5.916;2023-03-01T09:53:15;1.67;;;1.20;;
30408;SDS011;17207;52.960;5.916;2023-03-01T10:00:41;2.40;;;1.25;;
30408;SDS011;17207;52.960;5.916;2023-03-01T10:05:41;2.85;;;1.67;;
30408;SDS011;17207;52.960;5.916;2023-03-01T10:10:55;1.30;;;1.10;;
30408;SDS011;17207;52.960;5.916;2023-03-01T10:16:12;1.50;;;1.25;;
30408;SDS011;17207;52.960;5.916;2023-03-01T10:18:39;2.20;;;1.30;;
30408;SDS011;17207;52.960;5.916;2023-03-01T10:21:15;2.75;;;1.30;;
30408;SDS011;17207;52.960;5.916;2023-03-01T10:23:42;3.53;;;1.30;;
30408;SDS011;17207;52.960;5.916;2023-03-01T10:26:11;2.30;;;1.73;;
30408;SDS011;17207;52.960;5.916;2023-03-01T10:31:32;2.00;;;1.50;;
30408;SDS011;17207;52.960;5.916;2023-03-01T10:34:02;1.40;;;1.30;;
30408;SDS011;17207;52.960;5.916;2023-03-01T10:36:28;1.20;;;1.10;;
30408;SDS011;17207;52.960;5.916;2023-03-01T10:38:58;1.52;;;1.35;;
30408;SDS011;17207;52.960;5.916;2023-03-01T10:41:25;1.67;;;1.50;;
30408;SDS011;17207;52.960;5.916;2023-03-01T10:43:58;1.88;;;1.30;;
30408;SDS011;17207;52.960;5.916;2023-03-01T10:46:35;1.85;;;1.23;;
30408;SDS011;17207;52.960;5.916;2023-03-01T10:49:12;0.90;;;0.85;;
30408;SDS011;17207;52.960;5.916;2023-03-01T10:51:46;1.90;;;1.17;;
30408;SDS011;17207;52.960;5.916;2023-03-01T10:56:57;2.22;;;1.13;;
30408;SDS011;17207;52.960;5.916;2023-03-01T10:59:34;1.77;;;1.30;;
30408;SDS011;17207;52.960;5.916;2023-03-01T11:02:13;2.30;;;1.33;;
30408;SDS011;17207;52.960;5.916;2023-03-01T11:04:55;1.02;;;0.93;;
30408;SDS011;17207;52.960;5.916;2023-03-01T11:07:22;2.10;;;1.58;;
30408;SDS011;17207;52.960;5.916;2023-03-01T11:09:48;1.67;;;1.50;;
30408;SDS011;17207;52.960;5.916;2023-03-01T11:12:14;2.00;;;1.63;;
30408;SDS011;17207;52.960;5.916;2023-03-01T11:14:48;1.70;;;1.33;;
30408;SDS011;17207;52.960;5.916;2023-03-01T11:17:18;3.00;;;1.80;;
30408;SDS011;17207;52.960;5.916;2023-03-01T11:22:32;1.63;;;1.17;;
30408;SDS011;17207;52.960;5.916;2023-03-01T11:25:00;1.98;;;1.52;;
30408;SDS011;17207;52.960;5.916;2023-03-01T11:27:32;2.35;;;1.23;;
30408;SDS011;17207;52.960;5.916;2023-03-01T11:30:02;4.10;;;1.90;;
30408;SDS011;17207;52.960;5.916;2023-03-01T11:32:41;1.92;;;1.33;;
30408;SDS011;17207;52.960;5.916;2023-03-01T11:35:10;2.88;;;1.33;;
30408;SDS011;17207;52.960;5.916;2023-03-01T11:37:40;1.98;;;1.33;;
30408;SDS011;17207;52.960;5.916;2023-03-01T11:42:45;2.25;;;1.67;;
30408;SDS011;17207;52.960;5.916;2023-03-01T11:45:13;2.65;;;1.50;;
30408;SDS011;17207;52.960;5.916;2023-03-01T12:26:32;2.08;;;1.30;;
30408;SDS011;17207;52.960;5.916;2023-03-01T12:31:46;1.60;;;1.30;;
30408;SDS011;17207;52.960;5.916;2023-03-01T12:39:36;3.72;;;1.45;;
30408;SDS011;17207;52.960;5.916;2023-03-01T12:49:57;2.80;;;1.80;;
30408;SDS011;17207;52.960;5.916;2023-03-01T12:52:42;1.88;;;1.42;;
30408;SDS011;17207;52.960;5.916;2023-03-01T13:00:45;4.90;;;1.50;;
30408;SDS011;17207;52.960;5.916;2023-03-01T13:08:20;2.75;;;1.90;;
30408;SDS011;17207;52.960;5.916;2023-03-01T13:10:52;2.03;;;1.08;;
30408;SDS011;17207;52.960;5.916;2023-03-01T13:13:22;1.70;;;1.42;;
30408;SDS011;17207;52.960;5.916;2023-03-01T13:15:48;2.88;;;1.70;;
30408;SDS011;17207;52.960;5.916;2023-03-01T13:49:42;5.38;;;0.90;;
30408;SDS011;17207;52.960;5.916;2023-03-01T13:54:53;1.33;;;1.15;;
30408;SDS011;17207;52.960;5.916;2023-03-01T13:57:20;0.82;;;0.80;;
30408;SDS011;17207;52.960;5.916;2023-03-01T13:59:48;2.25;;;1.00;;
30408;SDS011;17207;52.960;5.916;2023-03-01T14:02:14;1.83;;;0.88;;
30408;SDS011;17207;52.960;5.916;2023-03-01T14:04:40;0.80;;;0.80;;
30408;SDS011;17207;52.960;5.916;2023-03-01T14:07:17;1.95;;;1.00;;
30408;SDS011;17207;52.960;5.916;2023-03-01T14:09:44;2.22;;;1.40;;
30408;SDS011;17207;52.960;5.916;2023-03-01T14:14:59;4.03;;;1.33;;
30408;SDS011;17207;52.960;5.916;2023-03-01T14:18:14;2.38;;;1.13;;
30408;SDS011;17207;52.960;5.916;2023-03-01T14:22:43;3.03;;;1.02;;
30408;SDS011;17207;52.960;5.916;2023-03-01T14:27:42;2.28;;;1.65;;
30408;SDS011;17207;52.960;5.916;2023-03-01T14:30:15;1.27;;;0.98;;
30408;SDS011;17207;52.960;5.916;2023-03-01T14:32:51;1.45;;;1.08;;
30408;SDS011;17207;52.960;5.916;2023-03-01T14:35:22;1.58;;;0.85;;
30408;SDS011;17207;52.960;5.916;2023-03-01T14:37:48;1.80;;;1.02;;
30408;SDS011;17207;52.960;5.916;2023-03-01T14:43:11;0.90;;;0.77;;
30408;SDS011;17207;52.960;5.916;2023-03-01T14:45:37;1.80;;;0.95;;
30408;SDS011;17207;52.960;5.916;2023-03-01T14:48:04;4.03;;;0.80;;
30408;SDS011;17207;52.960;5.916;2023-03-01T14:50:32;2.35;;;1.00;;
30408;SDS011;17207;52.960;5.916;2023-03-01T14:53:00;1.85;;;0.93;;
30408;SDS011;17207;52.960;5.916;2023-03-01T14:57:53;2.33;;;0.88;;
30408;SDS011;17207;52.960;5.916;2023-03-01T15:00:29;1.98;;;0.98;;
30408;SDS011;17207;52.960;5.916;2023-03-01T15:02:56;1.73;;;1.10;;
30408;SDS011;17207;52.960;5.916;2023-03-01T15:05:31;3.83;;;1.30;;
30408;SDS011;17207;52.960;5.916;2023-03-01T15:07:58;1.00;;;0.90;;
30408;SDS011;17207;52.960;5.916;2023-03-01T15:10:27;5.40;;;0.88;;
30408;SDS011;17207;52.960;5.916;2023-03-01T15:12:53;1.77;;;0.82;;
30408;SDS011;17207;52.960;5.916;2023-03-01T15:15:20;1.85;;;1.02;;
30408;SDS011;17207;52.960;5.916;2023-03-01T15:17:50;2.20;;;0.70;;
30408;SDS011;17207;52.960;5.916;2023-03-01T15:20:18;1.67;;;1.00;;
30408;SDS011;17207;52.960;5.916;2023-03-01T15:22:47;0.70;;;0.70;;
30408;SDS011;17207;52.960;5.916;2023-03-01T15:25:19;1.83;;;0.95;;
30408;SDS011;17207;52.960;5.916;2023-03-01T15:27:47;2.47;;;0.95;;
30408;SDS011;17207;52.960;5.916;2023-03-01T15:30:23;0.70;;;0.63;;
30408;SDS011;17207;52.960;5.916;2023-03-01T15:35:44;3.67;;;0.98;;
30408;SDS011;17207;52.960;5.916;2023-03-01T15:40:54;1.90;;;1.00;;
30408;SDS011;17207;52.960;5.916;2023-03-01T15:43:37;1.45;;;0.77;;
30408;SDS011;17207;52.960;5.916;2023-03-01T15:46:04;1.50;;;1.02;;
30408;SDS011;17207;52.960;5.916;2023-03-01T15:48:30;2.00;;;1.05;;
30408;SDS011;17207;52.960;5.916;2023-03-01T15:50:57;1.73;;;0.88;;
30408;SDS011;17207;52.960;5.916;2023-03-01T15:53:23;1.80;;;1.03;;
30408;SDS011;17207;52.960;5.916;2023-03-01T15:55:49;2.70;;;1.05;;
30408;SDS011;17207;52.960;5.916;2023-03-01T15:58:17;1.00;;;0.90;;
30408;SDS011;17207;52.960;5.916;2023-03-01T16:03:12;1.13;;;0.80;;
30408;SDS011;17207;52.960;5.916;2023-03-01T16:05:38;3.67;;;1.10;;
30408;SDS011;17207;52.960;5.916;2023-03-01T16:08:06;2.90;;;1.15;;
30408;SDS011;17207;52.960;5.916;2023-03-01T16:10:33;3.53;;;1.02;;
30408;SDS011;17207;52.960;5.916;2023-03-01T16:12:59;3.90;;;1.23;;
30408;SDS011;17207;52.960;5.916;2023-03-01T16:15:27;1.10;;;1.00;;
30408;SDS011;17207;52.960;5.916;2023-03-01T16:17:53;1.40;;;0.88;;
30408;SDS011;17207;52.960;5.916;2023-03-01T16:20:19;2.75;;;0.90;;
30408;SDS011;17207;52.960;5.916;2023-03-01T16:22:46;3.75;;;1.42;;
30408;SDS011;17207;52.960;5.916;2023-03-01T16:25:13;1.60;;;1.15;;
30408;SDS011;17207;52.960;5.916;2023-03-01T16:27:43;0.95;;;0.75;;
30408;SDS011;17207;52.960;5.916;2023-03-01T16:30:09;4.88;;;1.20;;
30408;SDS011;17207;52.960;5.916;2023-03-01T16:32:39;1.88;;;1.02;;
30408;SDS011;17207;52.960;5.916;2023-03-01T16:35:06;3.70;;;1.27;;
30408;SDS011;17207;52.960;5.916;2023-03-01T16:37:32;2.03;;;0.80;;
30408;SDS011;17207;52.960;5.916;2023-03-01T16:39:58;7.35;;;0.80;;
30408;SDS011;17207;52.960;5.916;2023-03-01T16:42:25;1.65;;;1.30;;
30408;SDS011;17207;52.960;5.916;2023-03-01T16:44:56;3.42;;;1.08;;
30408;SDS011;17207;52.960;5.916;2023-03-01T16:47:23;2.45;;;0.75;;
30408;SDS011;17207;52.960;5.916;2023-03-01T16:49:51;1.10;;;0.90;;
30408;SDS011;17207;52.960;5.916;2023-03-01T16:52:17;4.20;;;1.42;;
30408;SDS011;17207;52.960;5.916;2023-03-01T16:54:43;2.08;;;0.80;;
30408;SDS011;17207;52.960;5.916;2023-03-01T16:57:09;2.05;;;1.05;;
30408;SDS011;17207;52.960;5.916;2023-03-01T16:59:35;10.23;;;4.40;;
30408;SDS011;17207;52.960;5.916;2023-03-01T17:02:02;4.55;;;3.40;;
30408;SDS011;17207;52.960;5.916;2023-03-01T17:04:28;6.65;;;2.53;;
30408;SDS011;17207;52.960;5.916;2023-03-01T17:06:54;6.63;;;3.20;;
30408;SDS011;17207;52.960;5.916;2023-03-01T17:09:20;18.63;;;4.75;;
30408;SDS011;17207;52.960;5.916;2023-03-01T17:11:47;20.83;;;5.75;;
30408;SDS011;17207;52.960;5.916;2023-03-01T17:14:13;25.17;;;5.55;;
30408;SDS011;17207;52.960;5.916;2023-03-01T17:16:41;18.90;;;4.77;;
30408;SDS011;17207;52.960;5.916;2023-03-01T17:19:07;25.58;;;4.07;;
30408;SDS011;17207;52.960;5.916;2023-03-01T17:21:33;17.38;;;3.78;;
30408;SDS011;17207;52.960;5.916;2023-03-01T17:23:59;16.80;;;3.75;;
30408;SDS011;17207;52.960;5.916;2023-03-01T17:26:25;14.68;;;3.40;;
30408;SDS011;17207;52.960;5.916;2023-03-01T17:28:53;20.42;;;4.05;;